100LL.CA
Aviation Fuel Pricing for Canadians
Please upgrade your browser - Tested with IE9, FireFox, Chrome, Safari

Fuel Prices Airport Info Airport List METAR / TAF Kneeboard RSS

Reference Airport: Port Hawkesbury, NS
N 45 39 23   W 061 22 06

CYPD Port Hawkesbury, NS
WEATHER
METARCYPD 211900Z AUTO 30007KT 9SM CLR 23/16 A2994 RMK SLP139 DENSITY ALT 1400FT
REF N 45 39 23  W 061 22 06    2.1N    19W (2013)
UTC-4(3)    Elev 373    A5003 LO8 HI6 CAP
OPR Muni 902-625-2206/5053 or 902-631-1512 Fax 902-625-7019
Reg
PFA-1 12-22Z C-2,3,4,5,6
CUSTAOE/15 888-226-7277
FLT PLN NOTAM FILE CYQY
FIC London 866-WXBRIEF (Toll free within Canada) or 866-541-4104 (Toll free within Canada & USA)
ACC(IFR only) Moncton 506-867-7177 or 866-480-8200.
WXMETAR AUTO H24 (see COMM) WxCam
SERVICES Call out chg after hrs 902-625-2206/902-625-5053 PN
FUEL100LL, JA-1 12-22Z
PRICES100LL public: 1.955; JETA: 1.840; current as of 2017-06-07.
OIL15W50
S1,2,3,4,5,6
RWY DATARwy 11(109)/29(289) 5000x150 asphalt Rwy 29 down 0.82%
RCROpr Ltd win maint
LIGHTING11-(TE ME), 29-(TE ME) ARCAL-122.8 key mic 3 times
COMM
DRCOHalifax rdo 123.375 (FISE) 126.7 (bcst)
ATFUNICOM 122.8 1230-2130Z, O/T tfc 122.8 5NM 3400 ASL
AWOS128.3
NAV
NDBPD 229 (L) N45 39 19 W61 16 10
CAUTIONOcsl blasting by NOTAM to 1600 ASL 2NM SW airport.
Effective 0901Z 22 June 2017 to 0901Z 17 August 2017